Pahranagat National Wildlife Refuge, Nevada Weather observations

Data are for 10 minute period ending at time listed.
 Day   Time   Solar   Ave.   Ave.  Ave.  Vector  Max.   Baro.   Total    
  of    of     Rad.   Air    Rel.  Wind   Wind   Wind  Press.  Precip.   
Year   Day            Temp.  Hum.  Speed  Dir.   Gust                    
2014   (PST)  Kw/m2    F      %     mph   deg.    mph    mb.     in.     
-------------------------------------------------------------------------
 294   16:50   0.01   70.3    28    3.6   140     4.9   897.7    0.00 
 294   17:00   0.01   68.8    30    2.5   156     3.4   897.9    0.00 
 294   17:10   0.00   67.0    32    2.3   138     3.7   898.0    0.00 
 294   17:20   0.00   65.6    32    3.2   138     3.9   898.1    0.00 
 294   17:30   0.00   63.4    33    3.9   151     5.0   898.2    0.00 
 294   17:40   0.00   64.5    30    3.2   186     5.0   898.4    0.00 
 294   17:50   0.00   67.2    26    2.3   197     4.7   898.5    0.00 
 294   18:00   0.00   64.6    28    0.4   304     2.4   898.6    0.00 
 294   18:10   0.00   63.3    28    0.6   114     2.3   898.5    0.00 
 294   18:20   0.00   62.8    26    2.6   237     4.8   898.6    0.00 
 294   18:30   0.00   62.5    25    0.8   117     3.6   898.7    0.00 
 294   18:40   0.00   64.8    21    1.9    45     4.5   898.9    0.00 
 294   18:50   0.00   65.4    21    3.0    76     5.4   899.0    0.00 
 294   19:00   0.00   64.8    25    2.0    20     5.5   899.0    0.00 
 294   19:10   0.00   63.1    25    0.8   155     2.9   899.1    0.00 
 294   19:20   0.00   61.0    28    2.9   313     4.3   899.1    0.00 
 294   19:30   0.00   54.5    39    4.0   319     5.4   899.1    0.00 
 294   19:40   0.00   50.4    46    2.5   347     4.4   899.2    0.00 
 294   19:50   0.00   50.7    46    3.0   338     4.7   899.3    0.00 
 294   20:00   0.00   51.2    45    0.5   242     1.3   899.4    0.00 
 294   20:10   0.00   51.7    48    1.8   235     5.1   899.4    0.00 
 294   20:20   0.00   46.9    61    2.8   337     4.3   899.6    0.00 
 294   20:30   0.00   49.3    50    3.1   357     4.5   899.7    0.00 
 294   20:40   0.00   51.5    44    1.7    66     3.2   899.7    0.00 
 294   20:50   0.00   50.0    52    1.5   152     3.6   899.8    0.00 
 294   21:00   0.00   47.4    59    1.3   140     3.1   899.9    0.00 
 294   21:10   0.00   49.5    47    0.7    61     3.0   899.9    0.00 
 294   21:20   0.00   46.9    52    3.3   338     5.6   899.9    0.00 
 294   21:30   0.00   44.5    57    2.8   336     4.4   900.0    0.00 
 294   21:40   0.00   44.5    57    2.9   344     3.7   900.0    0.00 
 294   21:50   0.00   43.9    59    2.4   314     3.9   900.0    0.00 
 294   22:00   0.00   43.0    64    1.9   284     4.2   900.0    0.00 
 294   22:10   0.00   42.5    66    0.0     0     0.0   900.0    0.00 
 294   22:20   0.00   43.9    64    0.2   262     1.2   900.1    0.00 
 294   22:30   0.00   45.5    60    1.4     5     3.9   900.2    0.00 
 294   22:40   0.00   46.0    60    2.7   320     5.2   900.2    0.00 
 294   22:50   0.00   48.1    56    3.4   342     4.7   900.2    0.00 
 294   23:00   0.00   47.9    56    1.8   298     3.1   900.2    0.00 
 294   23:10   0.00   47.0    54    3.2   301     4.8   900.2    0.00 
 294   23:20   0.00   45.1    57    2.3   325     3.7   900.4    0.00 
 294   23:30   0.00   47.0    52    2.8   308     3.6   900.6    0.00 
 294   23:40   0.00   47.3    50    2.9   300     4.0   900.6    0.00 
 294   23:50   0.00   47.3    48    4.1   348     5.6   900.7    0.00 
 295    0:00   0.00   46.4    50    2.4   306     3.0   900.7    0.00 
 295    0:10   0.00   47.4    49    4.0   353     6.1   900.7    0.00 
 295    0:20   0.00   46.8    53    3.5   326     5.1   900.9    0.00 
 295    0:30   0.00   45.8    54    3.4   314     4.3   901.1    0.00 
 295    0:40   0.00   46.5    48    4.5   322     5.4   901.1    0.00 
 295    0:50   0.00   46.4    46    3.3   308     4.5   901.1    0.00 
 295    1:00   0.00   46.5    46    1.0   288     2.9   901.3    0.00 
 295    1:10   0.00   45.1    49    1.1   162     2.1   901.5    0.00 
 295    1:20   0.00   46.7    42    1.4   304     2.9   901.5    0.00 
 295    1:30   0.00   48.1    42    1.9   281     2.9   901.5    0.00 
 295    1:40   0.00   45.3    48    0.9   235     1.3   901.6    0.00 
 295    1:50   0.00   44.2    49    1.7   285     2.9   901.6    0.00 
 295    2:00   0.00   43.3    48    2.9   323     4.2   901.6    0.00 
 295    2:10   0.00   42.8    48    3.6   311     4.2   901.5    0.00 
 295    2:20   0.00   40.9    53    3.0   304     3.5   901.6    0.00 
 295    2:30   0.00   40.3    54    1.2   310     2.1   901.7    0.00 
 295    2:40   0.00   41.5    50    3.5   291     5.0   901.8    0.00 
 295    2:50   0.00   43.0    47    4.3   297     5.5   901.8    0.00 
 295    3:00   0.00   42.7    48    2.6   313     4.5   902.1    0.00 
 295    3:10   0.00   43.6    47    3.7   331     5.7   902.2    0.00 
 295    3:20   0.00   43.5    45    3.9   328     5.2   902.3    0.00 
 295    3:30   0.00   41.9    48    3.2   285     5.3   902.2    0.00 
 295    3:40   0.00   41.4    49    3.2   337     5.1   902.5    0.00 
 295    3:50   0.00   43.5    45    5.2   344     6.7   902.6    0.00 
 295    4:00   0.00   44.3    46    5.0   342     8.0   902.7    0.00 
 295    4:10   0.00   43.3    46    3.7   342     6.9   903.1    0.00 
 295    4:20   0.00   42.9    45    1.3   272     2.9   903.1    0.00 
 295    4:30   0.00   41.9    50    1.1   152     2.8   903.2    0.00 
 295    4:40   0.00   43.0    43    1.6    61     3.7   903.3    0.00 
 295    4:50   0.00   44.2    43    2.2   287     3.4   903.3    0.00 
 295    5:00   0.00   43.2    44    1.9   240     2.9   903.4    0.00 
 295    5:10   0.00   41.7    47    2.2   282     3.8   903.6    0.00 
 295    5:20   0.00   42.4    44    0.9   130     2.0   903.8    0.00 
 295    5:30   0.00   42.7    43    1.3   166     1.8   903.8    0.00 
 295    5:40   0.00   41.9    44    1.2   132     2.2   903.8    0.00 
 295    5:50   0.00   42.3    41    0.8    74     2.7   904.0    0.00 
 295    6:00   0.00   40.6    44    1.0   351     2.3   904.1    0.00 
 295    6:10   0.01   39.8    47    0.3   274     2.1   904.2    0.00 
 295    6:20   0.02   38.8    62    1.1   248     3.4   904.3    0.00 
 295    6:30   0.05   40.8    49    0.5    34     2.4   904.5    0.00 
 295    6:40   0.08   45.1    37    0.5    58     1.9   904.7    0.00 
 295    6:50   0.10   48.4    36    0.5    48     1.8   904.9    0.00 
 295    7:00   0.13   51.5    40    0.1   328     0.9   905.1    0.00 
 295    7:10   0.15   54.4    31    0.5    81     2.2   905.4    0.00 
 295    7:20   0.19   55.8    30    0.6   354     2.7   905.7    0.00 
 295    7:30   0.20   56.4    30    3.6   302     8.1   905.9    0.00 
 295    7:40   0.24   56.9    28    6.0   311     8.7   906.1    0.00 
 295    7:50   0.27   58.1    26    5.7   316     8.8   906.1    0.00 
 295    8:00   0.28   59.5    25    6.2   316     9.3   906.1    0.00 
 295    8:10   0.31   61.2    23    6.8   328    10.8   906.1    0.00 
 295    8:20   0.34   62.2    22    7.8   332    13.2   906.3    0.00 
 295    8:30   0.38   63.2    20    9.6   325    14.9   906.2    0.00 
 295    8:40   0.34   63.7    20    7.7   337    13.4   906.2    0.00 
 295    8:50   0.40   64.2    19    7.8   350    11.2   906.1    0.00 
 295    9:00   0.36   64.8    19    7.4   337    11.7   906.1    0.00 
 295    9:10   0.41   65.3    19    8.0   328    11.5   906.0    0.00 
 295    9:20   0.48   66.5    18    8.1   333    12.9   905.9    0.00 
 295    9:30   0.51   67.4    18    8.5   341    12.9   905.9    0.00 
 295    9:40   0.50   67.8    18    8.5   340    13.9   905.7    0.00 
 295    9:50   0.53   69.0    18    7.8   348    12.6   905.7    0.00 
 295   10:00   0.56   69.7    18    7.8   351    11.5   905.7    0.00 
 295   10:10   0.55   70.4    18    8.0   337    12.8   905.6    0.00 
 295   10:20   0.58   71.1    18    7.4   347    11.3   905.5    0.00 
 295   10:30   0.59   71.5    17    6.1   324    11.3   905.4    0.00 
 295   10:40   0.60   72.4    17    6.2   347    10.7   905.2    0.00 
 295   10:50   0.59   72.8    17    5.8   331    11.2   905.2    0.00 
 295   11:00   0.56   73.1    17    5.1   330     8.9   905.0    0.00 
 295   11:10   0.59   73.5    16    5.2   334    10.0   904.9    0.00 
 295   11:20   0.58   74.1    16    6.0   310    10.4   904.8    0.00 
 295   11:30   0.61   74.0    16    4.4   318     8.1   904.6    0.00 
 295   11:40   0.61   74.7    15    3.3   321     6.4   904.3    0.00 
 295   11:50   0.60   75.3    15    2.6    22     5.1   904.1    0.00 
 295   12:00   0.57   75.7    15    2.9   294     6.3   904.0    0.00 
 295   12:10   0.55   76.2    15    2.9   286     5.7   903.8    0.00 
 295   12:20   0.44   75.8    15    3.1   226     5.1   903.7    0.00 
 295   12:30   0.51   76.7    15    2.5   263     4.7   903.7    0.00 
 295   12:40   0.58   76.7    14    3.2   238     6.2   903.7    0.00 
 295   12:50   0.56   76.6    14    2.3   311     5.5   903.6    0.00 
 295   13:00   0.56   78.2    13    2.5   241     6.1   903.5    0.00 
 295   13:10   0.54   79.2    13    1.6   134     3.8   903.3    0.00 
 295   13:20   0.51   78.5    13    2.7    67     5.3   903.2    0.00 
 295   13:30   0.52   78.9    13    2.2   145     5.3   903.1    0.00 
 295   13:40   0.45   80.2    12    2.5   207     4.7   903.1    0.00 
 295   13:50   0.23   78.3    13    2.5   218     4.7   903.1    0.00 
 295   14:00   0.31   77.9    13    0.9   128     3.4   903.1    0.00 
 295   14:10   0.49   80.0    12    2.9   157     5.2   903.1    0.00 
 295   14:20   0.46   80.2    12    3.0   100     5.8   903.1    0.00 
 295   14:30   0.40   80.6    12    2.5   192     5.9   903.1    0.00 
 295   14:40   0.37   80.3    11    2.8   124     6.1   902.9    0.00 
 295   14:50   0.34   80.5    11    2.9   149     4.7   902.9    0.00 
 295   15:00   0.31   81.8    11    1.6   205     4.5   902.9    0.00 
 295   15:10   0.29   81.4    11    1.4   111     3.7   902.8    0.00 
 295   15:20   0.26   80.6    11    3.8   156     6.8   902.7    0.00 
 295   15:30   0.18   79.1    12    3.4   125     5.6   902.7    0.00 
 295   15:40   0.18   78.5    13    2.7   139     4.0   902.7    0.00 
 295   15:50   0.11   77.3    13    4.8   138     7.3   902.7    0.00 
 295   16:00   0.05   74.6    16    4.5   149     6.9   902.6    0.00 
 295   16:10   0.06   72.0    18    3.9   148     5.6   902.7    0.00 
 295   16:20   0.04   71.1    18    4.3   140     5.3   902.9    0.00 
 295   16:30   0.03   69.1    21    3.9   153     5.0   903.0    0.00 
 295   16:40   0.02   66.5    24    4.4   151     5.6   903.1    0.00 

Return to Pahranagat N. Wildlife Refuge graphs page.


Western Regional Climate Center,wrcc@dri.edu